Time;durP1;ratioP1;P1;durP2;ratioP2;P2;SDS_P1;SDS_P2;PMS_P1;PMS_P2;Temp;Humidity;BMP_temperature;BMP_pressure;BME280_temperature;BME280_humidity;BME280_pressure;Samples;Min_cycle;Max_cycle;Signal;HPM_P1;HPM_P2
2021/04/22 00:00:25;;;;;;;11.38;5.18;;;12.90;92.20;;;;;;5072412;28;20457;-62
2021/04/22 00:02:52;;;;;;;15.75;6.50;;;12.80;93.10;;;;;;5072878;28;20017;-61
2021/04/22 00:05:36;;;;;;;15.07;5.07;;;12.90;93.50;;;;;;5073068;28;20033;-62
2021/04/22 00:08:13;;;;;;;14.90;6.55;;;12.70;94.70;;;;;;5055420;28;20028;-62
2021/04/22 00:10:50;;;;;;;11.02;4.95;;;12.70;99.90;;;;;;5072813;28;20036;-61
2021/04/22 00:13:22;;;;;;;13.60;4.95;;;12.70;99.90;;;;;;5073262;28;20052;-62
2021/04/22 00:15:49;;;;;;;21.02;6.88;;;12.50;99.90;;;;;;5061712;28;20425;-62
2021/04/22 00:18:15;;;;;;;15.43;5.82;;;12.50;99.90;;;;;;5093339;28;20036;-62
2021/04/22 00:20:41;;;;;;;15.95;4.88;;;12.50;99.90;;;;;;5092697;28;20034;-62
2021/04/22 00:23:13;;;;;;;14.52;5.10;;;12.40;99.90;;;;;;5091920;28;20032;-61
2021/04/22 00:25:42;;;;;;;8.93;4.97;;;12.30;99.90;;;;;;5093080;28;20464;-62
2021/04/22 00:28:10;;;;;;;10.82;5.00;;;12.40;99.90;;;;;;5093298;28;20043;-62
2021/04/22 00:30:36;;;;;;;15.18;5.50;;;;;;;;;;5091251;28;20028;-62
2021/04/22 00:33:08;;;;;;;12.98;5.28;;;12.10;91.80;;;;;;5091697;28;20020;-62
2021/04/22 00:35:34;;;;;;;;;;;12.00;92.10;;;;;;5092837;28;20032;-64
2021/04/22 00:38:00;;;;;;;12.00;6.18;;;12.00;92.10;;;;;;5093044;28;20354;-61
2021/04/22 00:40:27;;;;;;;14.90;5.78;;;11.90;92.10;;;;;;5092393;28;20028;-62
2021/04/22 00:42:53;;;;;;;9.25;5.60;;;11.80;92.30;;;;;;5092599;28;20478;-61
2021/04/22 00:45:20;;;;;;;8.43;5.40;;;11.90;92.20;;;;;;5093144;28;20028;-66
2021/04/22 00:47:46;;;;;;;11.40;5.18;;;11.90;92.00;;;;;;5092844;28;20036;-66
2021/04/22 00:50:21;;;;;;;14.50;5.15;;;11.60;92.50;;;;;;5092940;28;20020;-67
2021/04/22 00:52:47;;;;;;;14.68;5.25;;;11.50;92.90;;;;;;5091494;28;20088;-66
2021/04/22 00:55:13;;;;;;;16.23;5.57;;;11.30;93.20;;;;;;5092939;28;20119;-66
2021/04/22 00:57:39;;;;;;;23.20;8.20;;;11.30;93.20;;;;;;5092195;28;20036;-68
2021/04/22 01:00:08;;;;;;;18.08;5.22;;;11.20;93.30;;;;;;5091311;28;20047;-67
2021/04/22 01:02:36;;;;;;;14.90;7.57;;;11.20;93.60;;;;;;5092244;28;20027;-67
2021/04/22 01:05:09;;;;;;;15.60;5.70;;;11.10;93.80;;;;;;5092814;28;20021;-67
2021/04/22 01:07:43;;;;;;;8.82;4.70;;;10.90;93.70;;;;;;5090547;28;20392;-67
2021/04/22 01:10:11;;;;;;;12.95;5.50;;;11.00;93.70;;;;;;5091393;28;20089;-67
2021/04/22 01:12:37;;;;;;;14.68;5.47;;;10.80;93.40;;;;;;5091929;28;20020;-67
2021/04/22 01:15:08;;;;;;;8.65;4.88;;;10.60;93.50;;;;;;5090722;28;20044;-67
2021/04/22 01:17:35;;;;;;;15.70;5.22;;;10.60;93.20;;;;;;5091448;28;20484;-67
2021/04/22 01:20:01;;;;;;;12.65;4.53;;;10.50;92.90;;;;;;5091697;28;20071;-68
2021/04/22 01:22:27;;;;;;;12.13;5.30;;;10.50;92.80;;;;;;5090211;28;20172;-67
2021/04/22 01:24:53;;;;;;;15.60;5.07;;;10.60;92.70;;;;;;5091069;28;20052;-67
2021/04/22 01:27:18;;;;;;;13.52;5.97;;;10.60;92.60;;;;;;5092407;28;20032;-66
2021/04/22 01:29:44;;;;;;;15.88;4.68;;;10.50;92.50;;;;;;5090269;28;20081;-67
2021/04/22 01:32:09;;;;;;;17.55;5.22;;;10.20;93.00;;;;;;5092001;28;20031;-67
2021/04/22 01:34:35;;;;;;;10.25;4.18;;;10.30;93.20;;;;;;5091534;28;20056;-66
2021/04/22 01:37:01;;;;;;;14.23;4.32;;;10.40;93.10;;;;;;5091670;28;20406;-70
2021/04/22 01:39:27;;;;;;;25.02;5.45;;;10.40;93.20;;;;;;5091509;28;20028;-66
2021/04/22 01:41:52;;;;;;;11.65;4.20;;;10.30;93.60;;;;;;5090724;28;20032;-66
2021/04/22 01:44:34;;;;;;;18.13;5.32;;;10.10;94.20;;;;;;5092068;28;20040;-66
2021/04/22 01:46:59;;;;;;;10.03;3.83;;;10.10;93.90;;;;;;5092015;28;20035;-66
2021/04/22 01:49:25;;;;;;;10.77;5.05;;;10.20;93.80;;;;;;5090203;28;20028;-70
2021/04/22 01:51:51;;;;;;;9.98;4.07;;;10.10;93.60;;;;;;5091803;28;20460;-67
2021/04/22 01:54:16;;;;;;;13.13;4.72;;;10.00;94.00;;;;;;5090280;28;20122;-67
2021/04/22 01:56:42;;;;;;;13.48;3.97;;;10.00;96.10;;;;;;5090784;28;20110;-67
2021/04/22 01:59:07;;;;;;;14.65;4.70;;;9.90;94.00;;;;;;5091517;28;20434;-67
2021/04/22 02:01:33;;;;;;;13.95;3.80;;;9.90;93.60;;;;;;5090607;28;20031;-68
2021/04/22 02:03:59;;;;;;;19.13;4.85;;;9.70;93.70;;;;;;5091104;28;20028;-66
2021/04/22 02:06:24;;;;;;;10.13;3.20;;;9.70;93.60;;;;;;5089871;28;20028;-67
2021/04/22 02:08:50;;;;;;;10.43;3.00;;;9.90;92.70;;;;;;5090961;28;20093;-66
2021/04/22 02:11:15;;;;;;;11.77;2.97;;;9.80;92.30;;;;;;5091286;28;20024;-67
2021/04/22 02:13:41;;;;;;;12.50;2.78;;;9.80;92.20;;;;;;5090615;28;20497;-67
2021/04/22 02:16:07;;;;;;;5.47;2.33;;;9.70;91.80;;;;;;5074837;28;20087;-68
2021/04/22 02:18:32;;;;;;;12.35;2.45;;;9.60;91.20;;;;;;5052238;28;20032;-68
2021/04/22 02:20:58;;;;;;;11.57;2.70;;;9.30;91.40;;;;;;5071262;28;20032;-65
2021/04/22 02:23:25;;;;;;;10.98;2.30;;;9.20;91.70;;;;;;5070854;28;20035;-66
2021/04/22 02:25:51;;;;;;;13.45;1.95;;;9.20;91.60;;;;;;5052365;28;20094;-66
2021/04/22 02:28:17;;;;;;;12.35;1.85;;;9.10;91.50;;;;;;5052992;28;20033;-67
2021/04/22 02:30:45;;;;;;;6.38;1.90;;;9.00;91.50;;;;;;5070065;28;20187;-66
2021/04/22 02:33:14;;;;;;;12.27;2.70;;;9.00;91.30;;;;;;5052478;28;20382;-66
2021/04/22 02:35:43;;;;;;;8.30;2.20;;;9.00;91.50;;;;;;5052134;28;20028;-66
2021/04/22 02:38:11;;;;;;;10.45;2.22;;;9.00;91.40;;;;;;5070485;28;20090;-67
2021/04/22 02:40:38;;;;;;;10.07;1.83;;;8.90;91.30;;;;;;5070147;28;20036;-66
2021/04/22 02:43:06;;;;;;;4.70;1.73;;;8.90;91.40;;;;;;5070796;28;20081;-66
2021/04/22 02:45:35;;;;;;;12.48;2.05;;;8.90;91.40;;;;;;5051982;28;20032;-67
2021/04/22 02:48:02;;;;;;;9.77;2.97;;;8.90;91.70;;;;;;5070270;28;20033;-66
2021/04/22 02:50:34;;;;;;;6.10;2.35;;;9.00;92.00;;;;;;5070438;28;20393;-67
2021/04/22 02:53:01;;;;;;;6.03;1.75;;;8.90;91.70;;;;;;5052831;28;20059;-67
2021/04/22 02:55:27;;;;;;;6.90;2.20;;;8.90;92.00;;;;;;5070829;28;20032;-67
2021/04/22 02:57:52;;;;;;;7.15;2.00;;;8.80;91.90;;;;;;5070458;28;20554;-66
2021/04/22 03:00:22;;;;;;;10.95;1.85;;;8.80;92.00;;;;;;5070889;28;20124;-67
2021/04/22 03:02:48;;;;;;;7.05;2.08;;;8.80;92.10;;;;;;5070215;28;20048;-67
2021/04/22 03:05:15;;;;;;;5.18;2.42;;;8.80;92.50;;;;;;5052675;28;20025;-68
2021/04/22 03:07:41;;;;;;;12.10;2.30;;;8.80;92.40;;;;;;5051952;28;20532;-68
2021/04/22 03:10:10;;;;;;;11.88;2.10;;;8.70;92.50;;;;;;5052573;28;20117;-67
2021/04/22 03:12:36;;;;;;;13.32;2.15;;;8.70;92.70;;;;;;5070057;28;20033;-67
2021/04/22 03:15:04;;;;;;;10.57;1.85;;;8.70;93.30;;;;;;5062829;28;20050;-67
2021/04/22 03:17:30;;;;;;;9.10;2.00;;;8.60;93.30;;;;;;5090391;28;20040;-69
2021/04/22 03:19:56;;;;;;;10.00;1.90;;;8.60;93.80;;;;;;5089566;28;20177;-66
2021/04/22 03:22:22;;;;;;;9.10;2.35;;;8.60;93.90;;;;;;5090505;28;20107;-67
2021/04/22 03:24:48;;;;;;;7.45;2.05;;;8.50;93.90;;;;;;5090169;28;20020;-67
2021/04/22 03:27:13;;;;;;;8.60;1.95;;;8.50;94.20;;;;;;5090377;28;20036;-67
2021/04/22 03:29:39;;;;;;;6.90;1.80;;;8.60;94.20;;;;;;5088649;28;20052;-66
2021/04/22 03:32:05;;;;;;;9.18;2.20;;;8.30;92.80;;;;;;5089148;28;20081;-68
2021/04/22 03:34:31;;;;;;;10.18;2.47;;;8.40;92.90;;;;;;5088894;28;20085;-68
2021/04/22 03:36:57;;;;;;;8.27;2.55;;;8.30;92.70;;;;;;5088984;28;20020;-66
2021/04/22 03:39:22;;;;;;;13.57;3.60;;;8.30;96.20;;;;;;5090791;28;20024;-66
2021/04/22 03:41:48;;;;;;;7.75;1.98;;;8.20;95.50;;;;;;5090019;28;20103;-66
2021/04/22 03:44:14;;;;;;;8.98;2.42;;;8.30;95.50;;;;;;5091977;28;20032;-67
2021/04/22 03:46:39;;;;;;;7.43;2.33;;;8.30;95.20;;;;;;5092296;28;20028;-66
2021/04/22 03:49:05;;;;;;;7.40;2.13;;;8.00;92.90;;;;;;5094401;28;20430;-67
2021/04/22 03:51:32;;;;;;;9.07;1.88;;;8.10;93.70;;;;;;5094105;28;20020;-67
2021/04/22 03:53:58;;;;;;;8.60;2.45;;;8.20;93.50;;;;;;5093922;28;20477;-67
2021/04/22 03:56:24;;;;;;;7.57;1.77;;;8.00;92.90;;;;;;5093788;28;20034;-67
2021/04/22 03:58:49;;;;;;;9.13;2.80;;;8.10;93.40;;;;;;5092958;28;20044;-66
2021/04/22 04:01:15;;;;;;;8.70;1.88;;;8.20;93.60;;;;;;5092061;28;20080;-67
2021/04/22 04:03:41;;;;;;;8.18;2.20;;;8.20;93.90;;;;;;5093250;28;20032;-66
2021/04/22 04:06:06;;;;;;;8.90;1.73;;;8.10;93.30;;;;;;5093602;28;20426;-67
2021/04/22 04:08:32;;;;;;;9.57;2.55;;;7.90;93.50;;;;;;5093833;28;20028;-68
2021/04/22 04:10:59;;;;;;;9.82;2.20;;;7.80;93.50;;;;;;5092937;28;20028;-66
2021/04/22 04:13:25;;;;;;;7.00;1.75;;;8.00;95.60;;;;;;5093507;28;20121;-67
2021/04/22 04:15:51;;;;;;;9.80;2.30;;;8.00;95.40;;;;;;5079050;28;20055;-67
2021/04/22 04:18:21;;;;;;;9.23;2.60;;;7.80;95.30;;;;;;5073672;28;20056;-67
2021/04/22 04:20:47;;;;;;;17.38;2.60;;;7.90;95.50;;;;;;5054587;28;20502;-67
2021/04/22 04:23:13;;;;;;;7.50;3.22;;;7.60;96.70;;;;;;5055209;28;20021;-67
2021/04/22 04:25:38;;;;;;;8.70;2.22;;;7.60;97.60;;;;;;5054554;28;20090;-67
2021/04/22 04:28:04;;;;;;;11.20;2.58;;;;;;;;;;5072785;28;20486;-68
2021/04/22 04:30:30;;;;;;;11.43;2.90;;;7.50;92.70;;;;;;5072677;28;20029;-67
2021/04/22 04:32:56;;;;;;;13.65;2.40;;;7.50;92.80;;;;;;5054249;28;20028;-67
2021/04/22 04:35:22;;;;;;;10.95;3.42;;;7.50;92.60;;;;;;5072758;28;20024;-68
2021/04/22 04:37:48;;;;;;;8.45;1.83;;;7.60;92.30;;;;;;5053707;28;20103;-68
2021/04/22 04:40:15;;;;;;;15.00;3.10;;;7.50;92.00;;;;;;5072830;28;20032;-67
2021/04/22 04:42:41;;;;;;;10.45;2.17;;;7.40;91.90;;;;;;5072080;28;20035;-68
2021/04/22 04:45:09;;;;;;;12.38;2.70;;;7.40;92.20;;;;;;5072967;28;20101;-68
2021/04/22 04:47:35;;;;;;;14.35;2.40;;;7.50;91.70;;;;;;5072504;28;20108;-67
2021/04/22 04:50:03;;;;;;;16.88;3.88;;;7.50;91.60;;;;;;5072105;28;20051;-67
2021/04/22 04:52:28;;;;;;;13.43;3.22;;;7.50;91.70;;;;;;5072312;28;20059;-67
2021/04/22 04:54:54;;;;;;;15.63;2.95;;;7.50;91.40;;;;;;5070799;28;20036;-68
2021/04/22 04:57:20;;;;;;;13.52;2.60;;;7.50;91.20;;;;;;5072197;28;20035;-67
2021/04/22 04:59:45;;;;;;;19.90;3.78;;;7.60;91.40;;;;;;5071646;28;20028;-67
2021/04/22 05:02:11;;;;;;;8.73;2.70;;;7.60;91.50;;;;;;5054225;28;20484;-66
2021/04/22 05:04:37;;;;;;;10.50;2.55;;;7.60;91.10;;;;;;5072183;28;20077;-70
2021/04/22 05:07:03;;;;;;;17.13;3.85;;;7.50;90.90;;;;;;5072570;28;20111;-67
2021/04/22 05:09:28;;;;;;;17.13;4.13;;;7.30;91.00;;;;;;5072199;28;20024;-67
2021/04/22 05:11:54;;;;;;;13.98;3.70;;;7.40;91.20;;;;;;5071168;28;20025;-68
2021/04/22 05:14:19;;;;;;;15.27;3.55;;;7.40;90.90;;;;;;5071675;28;20473;-66
2021/04/22 05:16:45;;;;;;;14.60;2.40;;;7.40;90.80;;;;;;5071356;28;20421;-67
2021/04/22 05:19:11;;;;;;;14.73;2.90;;;7.50;90.60;;;;;;5053924;28;20028;-67
2021/04/22 05:21:36;;;;;;;12.02;2.90;;;7.50;90.50;;;;;;5053687;28;20036;-67
2021/04/22 05:24:03;;;;;;;17.38;2.63;;;7.50;90.30;;;;;;5053290;28;20028;-68
2021/04/22 05:26:28;;;;;;;18.15;3.88;;;7.60;90.10;;;;;;5053984;28;20032;-68
2021/04/22 05:28:55;;;;;;;16.27;3.50;;;7.70;89.80;;;;;;5053642;28;20036;-66
2021/04/22 05:31:22;;;;;;;14.02;3.50;;;7.80;89.60;;;;;;5071847;28;20028;-68
2021/04/22 05:33:48;;;;;;;21.33;4.28;;;7.80;89.40;;;;;;5070633;28;20024;-69
2021/04/22 05:36:14;;;;;;;15.95;3.17;;;7.80;89.20;;;;;;5053619;28;20459;-66
2021/04/22 05:38:40;;;;;;;16.77;3.28;;;7.90;89.20;;;;;;5071051;28;20032;-70
2021/04/22 05:41:06;;;;;;;17.17;3.30;;;8.00;88.70;;;;;;5054124;28;20024;-68
2021/04/22 05:43:32;;;;;;;10.13;2.90;;;8.10;88.50;;;;;;5072448;28;20107;-60
2021/04/22 05:45:59;;;;;;;14.77;3.85;;;8.40;96.90;;;;;;5058446;28;20044;-60
2021/04/22 05:48:25;;;;;;;12.52;3.05;;;8.90;90.80;;;;;;5050417;28;20086;-59
2021/04/22 05:50:51;;;;;;;13.10;3.35;;;9.20;87.90;;;;;;5049574;28;20033;-60
2021/04/22 05:53:17;;;;;;;21.45;3.30;;;9.20;85.80;;;;;;5031628;28;20029;-65
2021/04/22 05:55:43;;;;;;;13.10;2.92;;;9.40;84.80;;;;;;5049554;28;20025;-62
2021/04/22 05:58:09;;;;;;;19.45;3.20;;;9.20;84.20;;;;;;5049459;28;20321;-60
2021/04/22 06:00:34;;;;;;;13.98;2.97;;;9.20;84.50;;;;;;5049635;28;20090;-60
2021/04/22 06:03:00;;;;;;;22.92;3.63;;;9.50;83.70;;;;;;5049187;28;20090;-61
2021/04/22 06:05:26;;;;;;;17.17;4.07;;;9.20;83.80;;;;;;5050066;28;20078;-68
2021/04/22 06:07:53;;;;;;;19.45;4.93;;;9.00;84.30;;;;;;5049904;28;20123;-70
2021/04/22 06:10:19;;;;;;;23.48;3.97;;;8.90;84.70;;;;;;5032625;28;20029;-69
2021/04/22 06:12:46;;;;;;;13.60;3.00;;;9.00;84.00;;;;;;5032320;28;20028;-68
2021/04/22 06:15:13;;;;;;;15.18;3.88;;;8.80;84.50;;;;;;5052069;28;20165;-69
2021/04/22 06:17:38;;;;;;;13.77;4.05;;;8.80;84.10;;;;;;5089074;28;20040;-68
2021/04/22 06:20:17;;;;;;;14.00;3.85;;;8.70;84.10;;;;;;5088530;28;20129;-70
2021/04/22 06:22:43;;;;;;;22.83;4.15;;;9.30;96.60;;;;;;5088219;28;20058;-70
2021/04/22 06:25:09;;;;;;;13.48;3.60;;;10.30;92.50;;;;;;5088977;28;20470;-68
2021/04/22 06:27:35;;;;;;;14.07;3.40;;;10.70;86.30;;;;;;5088768;28;20505;-70
2021/04/22 06:30:01;;;;;;;22.10;4.40;;;10.40;79.90;;;;;;5088824;28;20078;-69
2021/04/22 06:32:27;;;;;;;10.50;3.45;;;10.00;80.30;;;;;;5088489;28;20127;-69
2021/04/22 06:34:53;;;;;;;11.60;3.28;;;9.80;79.20;;;;;;5087389;28;20111;-68
2021/04/22 06:37:18;;;;;;;9.90;3.88;;;9.80;79.90;;;;;;5088130;28;20089;-68
2021/04/22 06:39:44;;;;;;;16.02;4.97;;;9.70;79.80;;;;;;5087687;28;20024;-69
2021/04/22 06:42:10;;;;;;;17.83;3.63;;;9.30;79.60;;;;;;5089045;28;20384;-67
2021/04/22 06:44:36;;;;;;;11.23;2.85;;;9.10;79.30;;;;;;5086724;28;20032;-70
2021/04/22 06:47:04;;;;;;;12.07;3.92;;;9.30;79.70;;;;;;5108863;28;20035;-69
2021/04/22 06:49:32;;;;;;;12.95;3.83;;;9.20;79.30;;;;;;5108600;28;20027;-67
2021/04/22 06:51:58;;;;;;;12.07;3.60;;;9.00;80.00;;;;;;5106853;28;20042;-68
2021/04/22 06:54:25;;;;;;;12.63;3.55;;;9.00;79.80;;;;;;5109303;28;20391;-68
2021/04/22 06:56:54;;;;;;;19.88;5.25;;;9.10;79.60;;;;;;5107978;28;20034;-68
2021/04/22 06:59:22;;;;;;;12.18;4.03;;;9.40;78.90;;;;;;5108857;28;20209;-69
2021/04/22 07:01:48;;;;;;;12.43;3.25;;;9.50;77.50;;;;;;5108784;28;20020;-68
2021/04/22 07:04:16;;;;;;;15.13;3.17;;;9.70;76.20;;;;;;5109197;28;20108;-70
2021/04/22 07:06:45;;;;;;;10.70;3.28;;;9.80;76.00;;;;;;5107592;28;20027;-68
2021/04/22 07:09:18;;;;;;;13.75;3.10;;;10.10;75.70;;;;;;5109672;28;20031;-69
2021/04/22 07:11:46;;;;;;;12.60;3.63;;;9.90;74.30;;;;;;5109240;28;20034;-69
2021/04/22 07:14:13;;;;;;;13.70;3.25;;;9.90;74.90;;;;;;5107481;28;20019;-68
2021/04/22 07:16:39;;;;;;;11.15;3.38;;;10.10;74.20;;;;;;5083471;28;20028;-67
2021/04/22 07:19:06;;;;;;;11.50;3.42;;;10.00;73.90;;;;;;5091833;28;20051;-68
2021/04/22 07:21:32;;;;;;;18.05;3.67;;;10.10;73.00;;;;;;5091585;28;20028;-67
2021/04/22 07:23:58;;;;;;;14.15;2.65;;;10.20;72.50;;;;;;5091003;28;20035;-68
2021/04/22 07:26:24;;;;;;;12.90;3.92;;;10.20;72.80;;;;;;5093246;28;20338;-68
2021/04/22 07:28:50;;;;;;;11.07;2.88;;;10.40;73.50;;;;;;5092522;28;20024;-68
2021/04/22 07:31:17;;;;;;;15.73;4.07;;;10.80;72.20;;;;;;5091715;28;20039;-67
2021/04/22 07:33:42;;;;;;;12.75;3.03;;;10.80;71.20;;;;;;5092709;28;20107;-67
2021/04/22 07:36:08;;;;;;;13.05;3.70;;;10.90;71.60;;;;;;5091783;28;20120;-68
2021/04/22 07:38:34;;;;;;;12.30;3.60;;;11.00;70.90;;;;;;5075711;28;20111;-67
2021/04/22 07:40:59;;;;;;;10.43;2.78;;;11.20;70.00;;;;;;5090733;28;20490;-68
2021/04/22 07:43:25;;;;;;;14.48;2.38;;;11.50;72.40;;;;;;5091455;28;20529;-68
2021/04/22 07:45:51;;;;;;;8.68;2.50;;;11.80;71.40;;;;;;5090702;28;20035;-68
2021/04/22 07:48:17;;;;;;;10.10;2.67;;;12.20;69.00;;;;;;5092917;28;20036;-69
2021/04/22 07:50:43;;;;;;;8.73;2.53;;;12.00;68.30;;;;;;5090390;28;20141;-65
2021/04/22 07:53:09;;;;;;;12.98;3.10;;;11.90;75.70;;;;;;5092513;28;20439;-67
2021/04/22 07:55:40;;;;;;;14.75;3.15;;;12.10;72.90;;;;;;5090886;28;20032;-67
2021/04/22 07:58:07;;;;;;;16.20;3.22;;;12.20;69.50;;;;;;5091268;28;20407;-67
2021/04/22 08:00:33;;;;;;;9.43;3.47;;;12.50;69.70;;;;;;5089460;28;20081;-67
2021/04/22 08:03:02;;;;;;;15.00;3.25;;;12.70;68.90;;;;;;5071890;28;20746;-67
2021/04/22 08:05:35;;;;;;;7.85;2.88;;;12.50;66.90;;;;;;5084713;28;20111;-68
2021/04/22 08:08:01;;;;;;;9.32;3.10;;;12.70;67.00;;;;;;5091935;28;20063;-66
2021/04/22 08:10:30;;;;;;;20.20;4.93;;;13.00;67.40;;;;;;5089474;28;20024;-68
2021/04/22 08:12:56;;;;;;;14.80;3.03;;;12.60;66.40;;;;;;5092218;28;20381;-69
2021/04/22 08:15:22;;;;;;;11.43;3.42;;;12.90;69.60;;;;;;5095385;28;20059;-69
2021/04/22 08:17:48;;;;;;;12.73;2.92;;;13.30;67.00;;;;;;5107910;28;20039;-69
2021/04/22 08:20:24;;;;;;;11.23;3.47;;;13.20;64.80;;;;;;5095115;28;20029;-67
2021/04/22 08:22:58;;;;;;;10.95;3.15;;;13.60;65.00;;;;;;5091433;28;20020;-67
2021/04/22 08:25:36;;;;;;;10.30;2.67;;;13.70;65.70;;;;;;5087759;28;20028;-66
2021/04/22 08:28:03;;;;;;;10.35;3.72;;;13.60;63.80;;;;;;5087382;28;20040;-67
2021/04/22 08:30:35;;;;;;;10.35;2.92;;;13.60;62.80;;;;;;5095424;28;20036;-68
2021/04/22 08:33:02;;;;;;;10.85;3.30;;;13.70;63.20;;;;;;5090317;28;20276;-69
2021/04/22 08:35:28;;;;;;;14.68;2.90;;;14.30;64.30;;;;;;5089474;28;20027;-70
2021/04/22 08:37:54;;;;;;;6.85;2.30;;;14.40;61.60;;;;;;5089118;28;20043;-67
2021/04/22 08:40:20;;;;;;;10.23;3.10;;;14.80;61.80;;;;;;5089693;28;20413;-70
2021/04/22 08:42:46;;;;;;;12.75;3.38;;;15.40;62.10;;;;;;5084906;28;20028;-67
2021/04/22 08:45:15;;;;;;;10.43;2.45;;;15.50;60.00;;;;;;5089462;28;20136;-69
2021/04/22 08:47:42;;;;;;;9.10;3.25;;;15.90;58.50;;;;;;5089618;28;20472;-70
2021/04/22 08:50:14;;;;;;;8.35;2.58;;;15.40;60.70;;;;;;5089621;28;20020;-66
2021/04/22 08:52:40;;;;;;;11.40;3.20;;;15.40;61.60;;;;;;5089311;28;20028;-68
2021/04/22 08:55:08;;;;;;;12.52;3.25;;;15.60;57.50;;;;;;5090602;28;20082;-69
2021/04/22 08:57:33;;;;;;;8.43;2.80;;;15.60;57.70;;;;;;5073988;28;20209;-68
2021/04/22 08:59:59;;;;;;;13.25;3.63;;;15.50;58.20;;;;;;5068977;28;20895;-68
2021/04/22 09:02:25;;;;;;;7.32;2.78;;;15.90;56.50;;;;;;5086867;28;20028;-68
2021/04/22 09:04:51;;;;;;;19.52;3.75;;;15.60;55.80;;;;;;5089431;28;20437;-69
2021/04/22 09:07:16;;;;;;;10.95;2.38;;;15.60;56.00;;;;;;5090116;28;20388;-69
2021/04/22 09:09:43;;;;;;;15.18;3.55;;;15.60;56.00;;;;;;5089272;28;20081;-69
2021/04/22 09:12:20;;;;;;;14.70;3.40;;;15.20;56.30;;;;;;5088594;28;20422;-69
2021/04/22 09:14:59;;;;;;;9.90;2.47;;;15.60;56.00;;;;;;5081559;28;20045;-68
2021/04/22 09:17:25;;;;;;;13.40;3.13;;;16.00;55.70;;;;;;5032242;28;20041;-68
2021/04/22 09:19:53;;;;;;;8.02;2.83;;;15.60;54.60;;;;;;5048919;28;20029;-70
2021/04/22 09:22:19;;;;;;;10.75;3.70;;;16.10;55.60;;;;;;5049288;28;20028;-68
2021/04/22 09:24:45;;;;;;;8.20;2.72;;;16.40;53.60;;;;;;5068957;28;20025;-69
2021/04/22 09:27:15;;;;;;;9.50;3.50;;;16.60;53.90;;;;;;5056712;28;20033;-70
2021/04/22 09:29:53;;;;;;;15.82;2.85;;;16.60;53.60;;;;;;5030932;28;20451;-70
2021/04/22 09:32:31;;;;;;;7.82;2.70;;;16.80;51.90;;;;;;5031517;28;20095;-68
2021/04/22 09:35:19;;;;;;;20.10;3.58;;;16.80;52.10;;;;;;5049238;28;20029;-69
2021/04/22 09:37:51;;;;;;;12.65;3.10;;;16.60;52.80;;;;;;5048853;28;20135;-69
2021/04/22 09:40:18;;;;;;;14.70;2.97;;;17.20;52.60;;;;;;5049692;28;20076;-68
2021/04/22 09:42:48;;;;;;;10.10;2.55;;;17.10;51.00;;;;;;5048514;28;20517;-68
2021/04/22 09:45:17;;;;;;;15.25;3.30;;;17.40;51.00;;;;;;5044036;28;20033;-70
2021/04/22 09:47:43;;;;;;;9.45;2.50;;;17.50;56.50;;;;;;5032268;28;20128;-69
2021/04/22 09:50:14;;;;;;;12.40;3.05;;;17.60;58.80;;;;;;5061119;28;20096;-69
2021/04/22 09:52:43;;;;;;;12.18;3.38;;;18.40;58.20;;;;;;5031852;28;20031;-69
2021/04/22 09:55:12;;;;;;;6.85;2.42;;;18.00;50.70;;;;;;5030919;28;20041;-68
2021/04/22 09:57:38;;;;;;;7.60;3.08;;;18.30;50.00;;;;;;5049680;28;20028;-69
2021/04/22 10:00:09;;;;;;;10.75;3.05;;;18.40;49.30;;;;;;5048408;28;20052;-70
2021/04/22 10:02:55;;;;;;;10.43;3.08;;;18.00;49.90;;;;;;5031673;28;20052;-71
2021/04/22 10:05:32;;;;;;;10.60;3.03;;;18.00;49.40;;;;;;5031991;28;20867;-69
2021/04/22 10:08:04;;;;;;;12.57;4.80;;;18.20;49.10;;;;;;5031087;28;20328;-70
2021/04/22 10:10:30;;;;;;;6.90;3.15;;;18.50;48.40;;;;;;5030902;28;20110;-70
2021/04/22 10:13:09;;;;;;;13.30;3.13;;;18.50;48.70;;;;;;5030036;28;20470;-70
2021/04/22 10:15:36;;;;;;;7.50;2.97;;;;;;;;;;5050141;28;20095;-70
2021/04/22 10:18:07;;;;;;;15.93;3.88;;;19.00;48.10;;;;;;5067734;28;20478;-68
2021/04/22 10:20:37;;;;;;;8.60;3.22;;;19.30;48.00;;;;;;5067089;28;20504;-72
2021/04/22 10:23:04;;;;;;;9.05;3.67;;;19.20;47.90;;;;;;5067553;28;20029;-69
2021/04/22 10:25:34;;;;;;;10.70;3.40;;;19.40;47.50;;;;;;5067991;28;20032;-71
2021/04/22 10:28:09;;;;;;;12.63;4.40;;;18.80;47.90;;;;;;5067142;28;20036;-71
2021/04/22 10:30:37;;;;;;;14.48;2.83;;;19.10;47.40;;;;;;5069419;28;20035;-71
2021/04/22 10:33:04;;;;;;;7.75;4.30;;;19.20;47.80;;;;;;5067876;28;20031;-71
2021/04/22 10:35:31;;;;;;;13.48;3.80;;;19.00;47.10;;;;;;5069406;28;20120;-70
2021/04/22 10:38:00;;;;;;;17.98;3.17;;;19.10;46.70;;;;;;5066914;28;20094;-68
2021/04/22 10:40:32;;;;;;;9.98;2.90;;;19.30;46.00;;;;;;5069741;28;20032;-69
2021/04/22 10:43:00;;;;;;;10.55;3.25;;;18.40;46.60;;;;;;5067300;28;20120;-68
2021/04/22 10:45:27;;;;;;;11.40;2.80;;;18.60;47.30;;;;;;5076203;28;20484;-68
2021/04/22 10:47:54;;;;;;;11.55;3.30;;;18.50;48.30;;;;;;5088714;28;20028;-64
2021/04/22 10:50:33;;;;;;;12.25;3.10;;;19.00;49.80;;;;;;5088012;28;20089;-64
2021/04/22 10:53:01;;;;;;;12.45;3.10;;;19.60;49.40;;;;;;5086546;28;20040;-64
2021/04/22 10:55:33;;;;;;;14.70;2.92;;;19.80;50.00;;;;;;5087605;28;20492;-70
2021/04/22 10:58:24;;;;;;;11.70;3.40;;;20.20;47.20;;;;;;5082740;28;20047;-68
2021/04/22 11:01:00;;;;;;;10.73;3.28;;;20.30;46.50;;;;;;5071535;28;20437;-71
2021/04/22 11:03:28;;;;;;;9.30;3.20;;;20.60;47.30;;;;;;5075234;28;20131;-71
2021/04/22 11:06:00;;;;;;;9.77;2.90;;;20.90;45.10;;;;;;5075378;28;20016;-67
2021/04/22 11:08:35;;;;;;;15.63;4.18;;;21.50;44.60;;;;;;5071907;28;20029;-67
2021/04/22 11:11:01;;;;;;;12.48;3.65;;;21.30;44.20;;;;;;5080367;28;20423;-68
2021/04/22 11:13:32;;;;;;;10.13;3.20;;;21.30;44.10;;;;;;5087855;28;20024;-69
2021/04/22 11:16:04;;;;;;;12.75;3.33;;;21.00;43.70;;;;;;5082566;28;20105;-71
2021/04/22 11:18:35;;;;;;;;;;;20.20;43.50;;;;;;5077646;28;20032;-64
2021/04/22 11:21:01;;;;;;;24.80;4.25;;;19.90;53.30;;;;;;5066722;28;20261;-64
2021/04/22 11:23:27;;;;;;;12.52;3.47;;;19.90;62.50;;;;;;5083157;28;20051;-67
2021/04/22 11:25:55;;;;;;;9.45;3.33;;;20.10;48.70;;;;;;5073083;28;20145;-64
2021/04/22 11:28:32;;;;;;;11.57;2.80;;;20.80;53.10;;;;;;5077538;28;20078;-65
2021/04/22 11:31:05;;;;;;;9.50;3.60;;;21.20;60.40;;;;;;5081721;28;20025;-64
2021/04/22 11:33:31;;;;;;;21.88;3.88;;;21.40;48.70;;;;;;5074828;28;20085;-72
2021/04/22 11:35:57;;;;;;;12.43;3.05;;;21.40;44.80;;;;;;5074508;28;20021;-71
2021/04/22 11:38:23;;;;;;;10.63;2.85;;;21.40;44.00;;;;;;5073397;28;20055;-70
2021/04/22 11:40:54;;;;;;;12.45;3.65;;;20.60;44.40;;;;;;5075534;28;20462;-72
2021/04/22 11:43:23;;;;;;;10.52;3.03;;;20.90;45.20;;;;;;5077168;28;20024;-70
2021/04/22 11:45:52;;;;;;;11.02;3.38;;;21.20;44.50;;;;;;5071768;28;20036;-74
2021/04/22 11:48:20;;;;;;;9.85;3.20;;;21.70;43.90;;;;;;5080968;28;20115;-70
2021/04/22 11:50:51;;;;;;;9.18;3.17;;;20.70;43.10;;;;;;5080956;28;20108;-73
2021/04/22 11:53:22;;;;;;;11.43;3.25;;;21.40;43.90;;;;;;5075737;28;20088;-68
2021/04/22 11:55:57;;;;;;;10.40;3.00;;;21.20;55.00;;;;;;5077346;28;20120;-71
2021/04/22 11:58:25;;;;;;;8.90;3.15;;;21.70;48.10;;;;;;5074003;28;20498;-67
2021/04/22 12:01:03;;;;;;;12.68;3.42;;;21.90;46.40;;;;;;5073852;28;20025;-63
2021/04/22 12:03:38;;;;;;;7.95;3.13;;;21.80;43.60;;;;;;5077391;28;20016;-63
2021/04/22 12:06:05;;;;;;;8.77;3.13;;;21.30;45.10;;;;;;5082626;28;20469;-67
2021/04/22 12:08:34;;;;;;;9.82;2.50;;;21.70;44.60;;;;;;5081024;28;20024;-64
2021/04/22 12:11:02;;;;;;;10.40;2.65;;;21.70;43.70;;;;;;5078875;28;20073;-63
2021/04/22 12:13:28;;;;;;;8.10;3.03;;;21.60;43.90;;;;;;5076538;28;20036;-71
2021/04/22 12:15:58;;;;;;;10.63;2.90;;;21.70;43.30;;;;;;5081813;28;20096;-72
2021/04/22 12:18:38;;;;;;;14.27;3.60;;;21.80;41.70;;;;;;5080911;28;20032;-71
2021/04/22 12:21:15;;;;;;;10.40;3.00;;;22.00;42.40;;;;;;5077930;28;20046;-71
2021/04/22 12:23:46;;;;;;;9.85;2.90;;;22.20;42.40;;;;;;5078733;28;20032;-71
2021/04/22 12:26:35;;;;;;;7.40;3.30;;;21.60;41.40;;;;;;5075981;28;20020;-71
2021/04/22 12:29:13;;;;;;;11.07;3.40;;;21.60;42.30;;;;;;5103938;28;20043;-70
2021/04/22 12:31:45;;;;;;;6.70;2.92;;;21.90;42.40;;;;;;5088750;28;20032;-69
2021/04/22 12:34:14;;;;;;;9.57;3.33;;;22.10;42.30;;;;;;5088602;28;20032;-73
2021/04/22 12:37:01;;;;;;;10.25;4.50;;;22.10;40.80;;;;;;5089604;28;20129;-70
2021/04/22 12:39:33;;;;;;;7.70;2.97;;;21.90;41.30;;;;;;5084952;28;20146;-73
2021/04/22 12:42:03;;;;;;;9.18;2.90;;;;;;;;;;5084538;28;20123;-71
2021/04/22 12:44:29;;;;;;;11.27;3.50;;;22.90;40.50;;;;;;5088946;28;20028;-71
2021/04/22 12:46:59;;;;;;;6.53;2.75;;;22.90;41.20;;;;;;5068154;28;20063;-71
2021/04/22 12:49:25;;;;;;;9.57;3.50;;;23.00;40.80;;;;;;5068459;28;20516;-71